Time;durP1;ratioP1;P1;durP2;ratioP2;P2;SDS_P1;SDS_P2;PMS_P1;PMS_P2;Temp;Humidity;BMP_temperature;BMP_pressure;BME280_temperature;BME280_humidity;BME280_pressure;Samples;Min_cycle;Max_cycle;Signal;HPM_P1;HPM_P2
2023/09/03 00:01:00;;;;;;;10.55;8.07;;;14.40;99.90;;;;;;5011968;28;20486;-74
2023/09/03 00:03:25;;;;;;;11.50;8.30;;;14.30;99.90;;;;;;5011465;28;20018;-74
2023/09/03 00:05:54;;;;;;;10.55;9.10;;;14.30;99.90;;;;;;5011760;28;20033;-74
2023/09/03 00:08:21;;;;;;;12.68;8.32;;;14.20;99.90;;;;;;5011373;28;20038;-74
2023/09/03 00:10:51;;;;;;;11.57;8.70;;;14.20;99.90;;;;;;5011820;28;20075;-74
2023/09/03 00:13:17;;;;;;;9.90;7.97;;;14.20;99.90;;;;;;5010769;28;20551;-74
2023/09/03 00:15:43;;;;;;;11.88;8.07;;;14.10;99.90;;;;;;5011611;28;20026;-75
2023/09/03 00:18:11;;;;;;;9.65;7.50;;;14.10;99.90;;;;;;5004308;28;20505;-74
2023/09/03 00:20:37;;;;;;;10.30;8.35;;;14.10;99.90;;;;;;5011537;28;20048;-74
2023/09/03 00:23:03;;;;;;;9.10;7.65;;;14.10;99.90;;;;;;5011635;28;20459;-74
2023/09/03 00:25:33;;;;;;;13.15;8.40;;;14.10;99.90;;;;;;5011167;28;20042;-74
2023/09/03 00:27:59;;;;;;;10.57;7.97;;;14.10;99.90;;;;;;5011755;28;20088;-74
2023/09/03 00:30:24;;;;;;;12.93;9.05;;;14.00;99.90;;;;;;5010963;28;20021;-74
2023/09/03 00:32:50;;;;;;;11.88;7.43;;;14.00;99.90;;;;;;4996928;28;20077;-74
2023/09/03 00:35:15;;;;;;;13.23;8.75;;;13.90;99.90;;;;;;4994574;28;20022;-74
2023/09/03 00:37:41;;;;;;;12.55;9.60;;;13.90;99.90;;;;;;5011818;28;20426;-74
2023/09/03 00:40:07;;;;;;;10.25;8.35;;;13.90;99.90;;;;;;5011621;28;20038;-75
2023/09/03 00:42:34;;;;;;;10.32;7.75;;;13.90;99.90;;;;;;5011144;28;20022;-74
2023/09/03 00:45:00;;;;;;;10.77;8.43;;;13.90;99.90;;;;;;5011472;28;20033;-74
2023/09/03 00:47:26;;;;;;;14.35;9.48;;;13.90;99.90;;;;;;5009700;28;20367;-75
2023/09/03 00:49:51;;;;;;;11.98;9.95;;;13.90;99.90;;;;;;5011610;28;20432;-74
2023/09/03 00:52:19;;;;;;;12.88;10.38;;;13.90;99.90;;;;;;5011173;28;20045;-75
2023/09/03 00:54:45;;;;;;;13.45;9.55;;;14.00;99.90;;;;;;5011282;28;20462;-75
2023/09/03 00:57:10;;;;;;;13.13;9.15;;;13.90;99.90;;;;;;5011727;28;20030;-74
2023/09/03 00:59:36;;;;;;;13.05;9.50;;;14.00;99.90;;;;;;5010965;28;20543;-75
2023/09/03 01:02:01;;;;;;;14.20;10.60;;;14.00;99.90;;;;;;4994167;28;20029;-74
2023/09/03 01:04:27;;;;;;;13.93;10.23;;;14.00;99.90;;;;;;5011161;28;20034;-74
2023/09/03 01:06:53;;;;;;;12.48;9.65;;;14.00;99.90;;;;;;5011271;28;20042;-74
2023/09/03 01:09:19;;;;;;;10.15;8.38;;;14.00;99.90;;;;;;5010771;28;20101;-74
2023/09/03 01:12:02;;;;;;;15.02;10.00;;;13.90;99.90;;;;;;5011486;28;20544;-74
2023/09/03 01:14:50;;;;;;;14.77;9.35;;;13.90;99.90;;;;;;4993553;28;20026;-74
2023/09/03 01:17:34;;;;;;;13.38;8.98;;;13.90;99.90;;;;;;5005572;28;20022;-74
2023/09/03 01:20:11;;;;;;;13.27;9.77;;;13.80;99.90;;;;;;5003181;28;20026;-74
2023/09/03 01:22:54;;;;;;;16.00;9.73;;;13.70;99.90;;;;;;5010683;28;20429;-74
2023/09/03 01:25:57;;;;;;;16.95;10.45;;;13.70;99.90;;;;;;5013267;28;20440;-74
2023/09/03 01:28:24;;;;;;;9.20;7.80;;;13.60;99.90;;;;;;5014151;28;20025;-74
2023/09/03 01:30:54;;;;;;;12.30;8.85;;;13.50;99.90;;;;;;5013330;28;20029;-75
2023/09/03 01:33:19;;;;;;;12.48;9.30;;;13.50;99.90;;;;;;4998390;28;20084;-74
2023/09/03 01:35:47;;;;;;;15.60;8.82;;;13.40;99.90;;;;;;5014670;28;20018;-74
2023/09/03 01:38:14;;;;;;;12.73;8.52;;;13.40;99.90;;;;;;5014555;28;20439;-73
2023/09/03 01:40:40;;;;;;;9.77;8.18;;;13.40;99.90;;;;;;5014500;28;20026;-74
2023/09/03 01:43:05;;;;;;;11.52;8.93;;;13.30;99.90;;;;;;5014646;28;20018;-74
2023/09/03 01:46:00;;;;;;;12.43;8.70;;;13.30;99.90;;;;;;5013669;28;20053;-74
2023/09/03 01:48:43;;;;;;;12.85;9.68;;;13.20;99.90;;;;;;4994430;28;20042;-75
2023/09/03 01:51:34;;;;;;;15.82;10.23;;;13.20;99.90;;;;;;5013818;28;20014;-74
2023/09/03 01:54:19;;;;;;;12.75;9.88;;;13.10;99.90;;;;;;5014435;28;20026;-74
2023/09/03 01:57:04;;;;;;;14.10;10.10;;;13.10;99.90;;;;;;5014022;28;20052;-74
2023/09/03 01:59:43;;;;;;;15.13;10.15;;;13.10;99.90;;;;;;5013558;28;20029;-74
2023/09/03 02:02:13;;;;;;;13.07;8.95;;;13.10;99.90;;;;;;5014267;28;20052;-74
2023/09/03 02:04:39;;;;;;;12.68;9.15;;;13.10;99.90;;;;;;5013042;28;20022;-74
2023/09/03 02:07:04;;;;;;;17.75;10.90;;;13.00;99.90;;;;;;5013711;28;20998;-75
2023/09/03 02:09:30;;;;;;;13.63;9.70;;;13.00;99.90;;;;;;5013702;28;20533;-74
2023/09/03 02:11:56;;;;;;;13.75;10.20;;;13.00;99.90;;;;;;5013634;28;20026;-75
2023/09/03 02:14:22;;;;;;;13.70;9.55;;;13.00;99.90;;;;;;4995651;28;20061;-74
2023/09/03 02:16:48;;;;;;;14.05;9.70;;;13.00;99.90;;;;;;5013697;28;20131;-74
2023/09/03 02:19:13;;;;;;;14.90;10.95;;;13.00;99.90;;;;;;4996083;28;20042;-75
2023/09/03 02:21:39;;;;;;;15.90;10.60;;;13.00;99.90;;;;;;5013054;28;20029;-74
2023/09/03 02:24:05;;;;;;;17.05;10.30;;;13.00;99.90;;;;;;4996297;28;20088;-74
2023/09/03 02:26:30;;;;;;;13.00;10.20;;;13.00;99.90;;;;;;4995309;28;20042;-74
2023/09/03 02:28:56;;;;;;;15.07;10.73;;;12.90;99.90;;;;;;4996424;28;20080;-75
2023/09/03 02:31:21;;;;;;;16.80;11.82;;;12.90;99.90;;;;;;5013305;28;20026;-74
2023/09/03 02:33:47;;;;;;;19.38;12.73;;;12.90;99.90;;;;;;5013398;28;20030;-74
2023/09/03 02:36:12;;;;;;;21.75;13.43;;;12.90;99.90;;;;;;4995394;28;20026;-75
2023/09/03 02:38:40;;;;;;;10.30;8.70;;;12.90;99.90;;;;;;5013024;28;20022;-74
2023/09/03 02:41:05;;;;;;;15.93;11.20;;;12.90;99.90;;;;;;4995422;28;20018;-74
2023/09/03 02:43:31;;;;;;;14.90;11.95;;;12.90;99.90;;;;;;5013036;28;20029;-72
2023/09/03 02:45:56;;;;;;;14.00;10.82;;;12.90;99.90;;;;;;5013313;28;20038;-72
2023/09/03 02:48:22;;;;;;;19.08;11.93;;;12.90;99.90;;;;;;4991708;28;20030;-72
2023/09/03 02:50:47;;;;;;;12.98;10.68;;;12.90;99.90;;;;;;5002337;28;20092;-73
2023/09/03 02:53:13;;;;;;;15.55;11.10;;;12.90;99.90;;;;;;5013259;28;20022;-73
2023/09/03 02:55:38;;;;;;;16.48;11.07;;;12.80;99.90;;;;;;5012865;28;20022;-74
2023/09/03 02:58:04;;;;;;;16.02;10.73;;;12.90;99.90;;;;;;5012971;28;20049;-74
2023/09/03 03:00:32;;;;;;;18.67;12.25;;;12.80;99.90;;;;;;5012292;28;20037;-75
2023/09/03 03:02:57;;;;;;;18.80;12.35;;;12.70;99.90;;;;;;5012969;28;20397;-75
2023/09/03 03:05:23;;;;;;;18.13;12.27;;;12.80;99.90;;;;;;5012552;28;20030;-74
2023/09/03 03:07:48;;;;;;;17.35;12.38;;;12.70;99.90;;;;;;5012818;28;20053;-75
2023/09/03 03:10:14;;;;;;;18.45;13.30;;;12.70;99.90;;;;;;5012898;28;20136;-74
2023/09/03 03:12:44;;;;;;;20.77;14.82;;;12.70;99.90;;;;;;5010655;28;20564;-73
2023/09/03 03:15:09;;;;;;;20.33;13.57;;;12.80;99.90;;;;;;4994911;28;20022;-75
2023/09/03 03:17:35;;;;;;;18.25;13.48;;;12.80;99.90;;;;;;5012626;28;20121;-74
2023/09/03 03:20:01;;;;;;;20.15;14.48;;;12.80;99.90;;;;;;4995207;28;20066;-74
2023/09/03 03:22:26;;;;;;;23.58;14.55;;;12.80;99.90;;;;;;5012322;28;20026;-75
2023/09/03 03:24:52;;;;;;;20.38;13.90;;;12.80;99.90;;;;;;5012333;28;20030;-73
2023/09/03 03:27:17;;;;;;;18.67;13.25;;;12.80;99.90;;;;;;5011248;28;20029;-73
2023/09/03 03:29:43;;;;;;;19.80;14.63;;;12.80;99.90;;;;;;5012737;28;20033;-74
2023/09/03 03:32:08;;;;;;;19.83;13.95;;;12.80;99.90;;;;;;5012642;28;20085;-74
2023/09/03 03:34:34;;;;;;;15.82;12.32;;;12.80;99.90;;;;;;4994322;28;20041;-74
2023/09/03 03:36:59;;;;;;;18.35;12.43;;;12.80;99.90;;;;;;5012241;28;20025;-75
2023/09/03 03:39:25;;;;;;;19.65;13.80;;;12.70;99.90;;;;;;5012106;28;20026;-75
2023/09/03 03:41:51;;;;;;;22.00;14.50;;;12.70;99.90;;;;;;5011357;28;20033;-75
2023/09/03 03:44:16;;;;;;;17.23;13.38;;;12.70;99.90;;;;;;5012055;28;20041;-75
2023/09/03 03:46:42;;;;;;;18.92;14.38;;;12.60;99.90;;;;;;5011578;28;20116;-74
2023/09/03 03:49:08;;;;;;;23.48;14.55;;;12.60;99.90;;;;;;5012032;28;20453;-74
2023/09/03 03:51:34;;;;;;;17.92;14.02;;;12.70;99.90;;;;;;5011558;28;20109;-75
2023/09/03 03:54:03;;;;;;;19.38;13.18;;;12.60;99.90;;;;;;5011939;28;20112;-74
2023/09/03 03:56:29;;;;;;;23.08;16.15;;;12.60;99.90;;;;;;5011574;28;20026;-75
2023/09/03 03:58:54;;;;;;;18.83;13.55;;;12.60;99.90;;;;;;5012243;28;20421;-74
2023/09/03 04:01:24;;;;;;;19.13;13.65;;;12.60;99.90;;;;;;5011718;28;20034;-74
2023/09/03 04:03:51;;;;;;;22.13;13.57;;;12.60;99.90;;;;;;5011832;28;20029;-75
2023/09/03 04:06:17;;;;;;;17.95;13.15;;;12.60;99.90;;;;;;4993776;28;20061;-74
2023/09/03 04:08:43;;;;;;;20.75;13.40;;;12.60;99.90;;;;;;5012242;28;20037;-74
2023/09/03 04:11:10;;;;;;;20.73;13.45;;;12.60;99.90;;;;;;5011458;28;20029;-74
2023/09/03 04:13:37;;;;;;;24.30;16.05;;;12.60;99.90;;;;;;4998538;28;20359;-75
2023/09/03 04:16:08;;;;;;;21.67;15.55;;;12.60;99.90;;;;;;5011783;28;20034;-74
2023/09/03 04:18:34;;;;;;;17.90;13.85;;;12.60;99.90;;;;;;5011042;28;20096;-75
2023/09/03 04:21:00;;;;;;;21.83;13.25;;;12.60;99.90;;;;;;5012109;28;20367;-74
2023/09/03 04:23:25;;;;;;;21.20;13.98;;;12.60;99.90;;;;;;5011128;28;20429;-74
2023/09/03 04:25:52;;;;;;;21.15;14.02;;;12.60;99.90;;;;;;5011052;28;20038;-74
2023/09/03 04:28:21;;;;;;;20.17;14.82;;;12.50;99.90;;;;;;5011069;28;20359;-75
2023/09/03 04:30:51;;;;;;;19.55;14.25;;;12.50;99.90;;;;;;5011648;28;20026;-74
2023/09/03 04:33:16;;;;;;;21.75;15.65;;;12.50;99.90;;;;;;5002033;28;20444;-75
2023/09/03 04:35:42;;;;;;;24.77;17.40;;;12.60;99.90;;;;;;5011495;28;20109;-75
2023/09/03 04:38:08;;;;;;;25.92;16.55;;;12.60;99.90;;;;;;5011456;28;20026;-74
2023/09/03 04:40:37;;;;;;;24.00;14.63;;;12.60;99.90;;;;;;5010810;28;20034;-74
2023/09/03 04:43:03;;;;;;;22.38;13.57;;;12.60;99.90;;;;;;5011510;28;20101;-75
2023/09/03 04:45:29;;;;;;;23.40;15.20;;;12.60;99.90;;;;;;5011027;28;20041;-74
2023/09/03 04:47:56;;;;;;;25.20;16.25;;;12.60;99.90;;;;;;5011629;28;20030;-74
2023/09/03 04:50:21;;;;;;;28.75;17.45;;;12.60;99.90;;;;;;5011069;28;20026;-74
2023/09/03 04:52:48;;;;;;;22.98;17.30;;;12.70;99.90;;;;;;5011393;28;20394;-74
2023/09/03 04:55:14;;;;;;;21.05;14.73;;;12.70;99.90;;;;;;5010909;28;20037;-75
2023/09/03 04:57:40;;;;;;;22.52;15.20;;;12.60;99.90;;;;;;5011447;28;20109;-74
2023/09/03 05:00:07;;;;;;;24.88;15.20;;;12.70;99.90;;;;;;5014292;28;20104;-74
2023/09/03 05:02:32;;;;;;;23.98;15.77;;;12.70;99.90;;;;;;5014157;28;20026;-74
2023/09/03 05:04:58;;;;;;;23.25;15.73;;;12.70;99.90;;;;;;5014625;28;20040;-74
2023/09/03 05:07:24;;;;;;;24.02;15.80;;;12.70;99.90;;;;;;5014810;28;20125;-74
2023/09/03 05:09:53;;;;;;;22.90;16.45;;;12.70;99.90;;;;;;5014941;28;20534;-74
2023/09/03 05:12:19;;;;;;;23.60;15.05;;;12.70;99.90;;;;;;5014720;28;20107;-75
2023/09/03 05:14:45;;;;;;;23.73;16.17;;;12.70;99.90;;;;;;5014688;28;20022;-74
2023/09/03 05:17:11;;;;;;;26.58;15.23;;;12.70;99.90;;;;;;5014947;28;20038;-74
2023/09/03 05:19:37;;;;;;;21.33;14.32;;;12.70;99.90;;;;;;4996710;28;20033;-75
2023/09/03 05:22:03;;;;;;;22.38;15.70;;;12.70;99.90;;;;;;4997193;28;20026;-74
2023/09/03 05:24:28;;;;;;;24.42;15.50;;;12.70;99.90;;;;;;5014128;28;20549;-74
2023/09/03 05:26:54;;;;;;;28.60;16.45;;;12.80;99.90;;;;;;4996868;28;20037;-74
2023/09/03 05:29:19;;;;;;;20.95;16.10;;;12.80;99.90;;;;;;5014234;28;20026;-75
2023/09/03 05:31:45;;;;;;;22.90;15.57;;;12.80;99.90;;;;;;5002535;28;20026;-76
2023/09/03 05:34:10;;;;;;;26.17;15.98;;;12.90;99.90;;;;;;5013297;28;20034;-74
2023/09/03 05:36:36;;;;;;;27.70;18.05;;;12.80;99.90;;;;;;5014037;28;20053;-74
2023/09/03 05:39:01;;;;;;;28.40;17.77;;;12.90;99.90;;;;;;4996762;28;20045;-74
2023/09/03 05:41:27;;;;;;;25.00;16.33;;;12.90;99.90;;;;;;5010655;28;20030;-74
2023/09/03 05:43:55;;;;;;;28.50;19.50;;;12.90;99.90;;;;;;5008898;28;20026;-74
2023/09/03 05:46:21;;;;;;;29.52;19.05;;;13.00;99.90;;;;;;5013147;28;20401;-74
2023/09/03 05:48:50;;;;;;;28.60;18.85;;;13.00;99.90;;;;;;5006498;28;20026;-74
2023/09/03 05:51:16;;;;;;;29.15;19.25;;;13.00;99.90;;;;;;4996327;28;20026;-76
2023/09/03 05:53:41;;;;;;;34.55;18.52;;;13.10;99.90;;;;;;5013998;28;20383;-75
2023/09/03 05:56:11;;;;;;;30.45;18.77;;;13.10;99.90;;;;;;5013676;28;20056;-75
2023/09/03 05:58:38;;;;;;;28.83;19.45;;;13.20;99.90;;;;;;5013792;28;20037;-74
2023/09/03 06:01:10;;;;;;;25.85;18.88;;;13.20;99.90;;;;;;5013835;28;20025;-74
2023/09/03 06:03:37;;;;;;;;;;;13.30;99.90;;;;;;5014033;28;20022;-74
2023/09/03 06:06:04;;;;;;;32.08;18.55;;;13.30;99.90;;;;;;5013762;28;20384;-74
2023/09/03 06:08:30;;;;;;;37.38;20.90;;;13.40;99.90;;;;;;5013441;28;20065;-74
2023/09/03 06:10:56;;;;;;;35.78;24.05;;;13.50;99.90;;;;;;5008291;28;20118;-74
2023/09/03 06:13:29;;;;;;;31.05;19.38;;;13.60;99.90;;;;;;5013330;28;20045;-74
2023/09/03 06:15:55;;;;;;;34.22;21.63;;;13.70;99.90;;;;;;5013802;28;20029;-74
2023/09/03 06:18:21;;;;;;;34.40;21.50;;;13.80;99.90;;;;;;5013448;28;20026;-75
2023/09/03 06:20:46;;;;;;;33.85;21.95;;;13.90;99.90;;;;;;5012556;28;20022;-74
2023/09/03 06:23:18;;;;;;;33.85;21.40;;;14.00;99.90;;;;;;4996034;28;20026;-74
2023/09/03 06:25:48;;;;;;;32.08;21.15;;;14.10;99.90;;;;;;5013768;28;20037;-74
2023/09/03 06:28:14;;;;;;;30.83;21.35;;;14.20;99.90;;;;;;5013322;28;20030;-75
2023/09/03 06:30:40;;;;;;;35.65;22.50;;;14.20;99.90;;;;;;4996204;28;20040;-74
2023/09/03 06:33:06;;;;;;;35.13;22.98;;;14.30;99.90;;;;;;5013343;28;20026;-74
2023/09/03 06:35:32;;;;;;;32.95;21.55;;;14.40;99.90;;;;;;5012943;28;20073;-75
2023/09/03 06:37:59;;;;;;;29.25;21.05;;;14.50;99.90;;;;;;5013325;28;20029;-74
2023/09/03 06:40:25;;;;;;;33.92;21.65;;;14.50;99.90;;;;;;5013047;28;20064;-74
2023/09/03 06:42:51;;;;;;;34.65;22.45;;;14.60;99.90;;;;;;5013459;28;20105;-74
2023/09/03 06:45:17;;;;;;;28.17;18.67;;;14.70;99.90;;;;;;5012844;28;20033;-74
2023/09/03 06:47:43;;;;;;;30.17;19.90;;;14.70;99.90;;;;;;4995432;28;20061;-74
2023/09/03 06:50:09;;;;;;;34.70;21.98;;;14.80;99.90;;;;;;5012704;28;20461;-74
2023/09/03 06:52:35;;;;;;;29.13;20.98;;;14.80;99.90;;;;;;5012761;28;20026;-74
2023/09/03 06:55:01;;;;;;;31.77;21.48;;;14.90;99.90;;;;;;5012993;28;20413;-74
2023/09/03 06:57:28;;;;;;;32.80;21.92;;;15.00;99.90;;;;;;5012720;28;20482;-74
2023/09/03 06:59:54;;;;;;;29.42;21.10;;;15.10;99.90;;;;;;5012503;28;20025;-74
2023/09/03 07:02:20;;;;;;;31.48;22.88;;;15.20;99.90;;;;;;5001953;28;20399;-74
2023/09/03 07:04:46;;;;;;;30.90;21.63;;;15.30;99.90;;;;;;4993481;28;20022;-75
2023/09/03 07:07:11;;;;;;;29.58;20.45;;;15.40;99.90;;;;;;4992900;28;20096;-74
2023/09/03 07:09:37;;;;;;;30.58;21.08;;;15.50;99.90;;;;;;4993082;28;20026;-75
2023/09/03 07:12:03;;;;;;;31.38;22.00;;;15.60;99.90;;;;;;5011045;28;20485;-75
2023/09/03 07:14:33;;;;;;;31.95;23.30;;;15.70;99.90;;;;;;5012393;28;20589;-73
2023/09/03 07:17:00;;;;;;;28.00;19.52;;;15.80;99.90;;;;;;5012746;28;20109;-72
2023/09/03 07:19:26;;;;;;;34.97;22.65;;;15.90;99.90;;;;;;5011889;28;20176;-73
2023/09/03 07:21:51;;;;;;;29.98;21.42;;;16.00;99.90;;;;;;5011332;28;20113;-72
2023/09/03 07:24:17;;;;;;;30.23;22.35;;;16.10;99.90;;;;;;5011845;28;20104;-72
2023/09/03 07:26:43;;;;;;;30.85;22.20;;;16.10;99.90;;;;;;5011704;28;20482;-73
2023/09/03 07:29:08;;;;;;;30.52;21.13;;;16.20;99.90;;;;;;5012097;28;20037;-72
2023/09/03 07:31:37;;;;;;;28.52;21.20;;;16.30;99.90;;;;;;5011754;28;20034;-72
2023/09/03 07:34:02;;;;;;;30.35;20.95;;;16.40;99.90;;;;;;5011923;28;20025;-73
2023/09/03 07:36:28;;;;;;;25.15;19.88;;;16.50;99.90;;;;;;5011971;28;20030;-73
2023/09/03 07:38:53;;;;;;;28.27;21.15;;;16.50;99.90;;;;;;5011816;28;20161;-73
2023/09/03 07:41:19;;;;;;;32.55;23.27;;;16.60;99.90;;;;;;5011697;28;20028;-73
2023/09/03 07:43:44;;;;;;;27.88;22.42;;;16.60;99.90;;;;;;4994939;28;20028;-73
2023/09/03 07:46:10;;;;;;;31.45;22.20;;;16.80;99.90;;;;;;5012182;28;20037;-73
2023/09/03 07:48:35;;;;;;;31.13;23.73;;;16.80;99.90;;;;;;5007357;28;20414;-73
2023/09/03 07:51:01;;;;;;;27.42;21.55;;;16.90;99.90;;;;;;5011934;28;20548;-73
2023/09/03 07:53:26;;;;;;;27.33;22.58;;;16.90;99.90;;;;;;5012110;28;20045;-73
2023/09/03 07:55:52;;;;;;;25.30;20.38;;;16.90;99.90;;;;;;5011127;28;20018;-73
2023/09/03 07:58:17;;;;;;;29.63;22.05;;;17.00;99.90;;;;;;5012309;28;20030;-73
2023/09/03 08:00:44;;;;;;;27.23;20.70;;;17.20;99.90;;;;;;5011901;28;20463;-72
2023/09/03 08:03:09;;;;;;;25.35;20.90;;;17.20;99.90;;;;;;5012245;28;20022;-74
2023/09/03 08:05:35;;;;;;;28.77;21.17;;;17.30;99.90;;;;;;5011820;28;20041;-73
2023/09/03 08:08:00;;;;;;;34.03;22.83;;;17.30;99.90;;;;;;5011934;28;20053;-73
2023/09/03 08:10:26;;;;;;;27.02;20.98;;;17.50;99.90;;;;;;4997043;28;20033;-73
2023/09/03 08:12:52;;;;;;;26.88;21.48;;;17.60;99.90;;;;;;5018034;28;20023;-73
2023/09/03 08:15:17;;;;;;;28.15;21.90;;;17.70;99.90;;;;;;5022409;28;20091;-73
2023/09/03 08:17:43;;;;;;;29.08;21.50;;;17.80;99.90;;;;;;4997756;28;20053;-73
2023/09/03 08:20:09;;;;;;;23.80;18.98;;;17.90;99.90;;;;;;5001368;28;20034;-72
2023/09/03 08:22:35;;;;;;;24.70;21.05;;;18.00;99.90;;;;;;4993681;28;20022;-73
2023/09/03 08:25:01;;;;;;;23.67;19.08;;;18.00;99.90;;;;;;5011334;28;20038;-72
2023/09/03 08:27:26;;;;;;;26.50;20.90;;;18.10;99.90;;;;;;5011380;28;20371;-72
2023/09/03 08:29:52;;;;;;;27.63;20.52;;;18.10;99.90;;;;;;5011794;28;20057;-72
2023/09/03 08:32:18;;;;;;;26.98;20.00;;;18.20;99.90;;;;;;5010862;28;20451;-73
2023/09/03 08:34:43;;;;;;;20.77;17.52;;;18.30;99.90;;;;;;5016485;28;20038;-73
2023/09/03 08:37:09;;;;;;;28.67;21.02;;;18.40;99.90;;;;;;5018018;28;20065;-73
2023/09/03 08:39:34;;;;;;;23.20;19.30;;;18.50;99.90;;;;;;5017889;28;20018;-73
2023/09/03 08:42:00;;;;;;;25.35;19.38;;;18.60;99.90;;;;;;5014640;28;20057;-72
2023/09/03 08:44:36;;;;;;;23.58;18.95;;;18.70;99.90;;;;;;5012671;28;20034;-73
2023/09/03 08:47:03;;;;;;;21.02;18.45;;;18.90;99.90;;;;;;5017934;28;20042;-73
2023/09/03 08:49:31;;;;;;;19.70;17.48;;;19.10;99.90;;;;;;5017657;28;20060;-73
2023/09/03 08:51:59;;;;;;;21.80;17.95;;;19.20;99.90;;;;;;5018284;28;20374;-73
2023/09/03 08:54:26;;;;;;;20.35;17.77;;;19.30;99.90;;;;;;5017662;28;20053;-73
2023/09/03 08:56:52;;;;;;;19.95;16.75;;;19.40;99.90;;;;;;5016582;28;20373;-72
2023/09/03 08:59:18;;;;;;;20.00;16.73;;;19.60;99.90;;;;;;4980621;28;20036;-75
2023/09/03 09:01:47;;;;;;;22.23;17.33;;;19.70;99.90;;;;;;4994921;28;20022;-74
2023/09/03 09:04:13;;;;;;;21.25;17.63;;;19.80;99.90;;;;;;5000464;28;20026;-73
2023/09/03 09:06:43;;;;;;;18.92;15.82;;;19.80;99.90;;;;;;5017127;28;20046;-74
2023/09/03 09:09:09;;;;;;;17.30;15.32;;;19.90;99.90;;;;;;5018081;28;20030;-74
2023/09/03 09:11:42;;;;;;;17.77;14.15;;;20.00;99.90;;;;;;5015813;28;20537;-73
2023/09/03 09:14:15;;;;;;;15.98;13.93;;;20.10;99.90;;;;;;5016625;28;20022;-73
2023/09/03 09:16:41;;;;;;;15.73;13.07;;;20.30;99.90;;;;;;5017522;28;20105;-73
2023/09/03 09:19:06;;;;;;;15.50;13.00;;;20.50;99.90;;;;;;5010269;28;20101;-73
2023/09/03 09:21:32;;;;;;;14.65;10.73;;;20.60;99.90;;;;;;5008428;28;20064;-74
2023/09/03 09:24:02;;;;;;;11.38;10.13;;;20.70;99.90;;;;;;5017805;28;20076;-74
2023/09/03 09:26:31;;;;;;;13.10;10.43;;;20.80;99.90;;;;;;5016937;28;20389;-73
2023/09/03 09:29:01;;;;;;;12.80;11.07;;;20.90;99.90;;;;;;4999964;28;20033;-74
2023/09/03 09:31:29;;;;;;;12.65;10.00;;;20.90;99.90;;;;;;5017167;28;20072;-74
2023/09/03 09:33:57;;;;;;;11.65;9.93;;;20.90;99.90;;;;;;5017966;28;20021;-74
2023/09/03 09:36:22;;;;;;;13.70;8.80;;;21.00;99.90;;;;;;5016694;28;20486;-73
2023/09/03 09:38:48;;;;;;;12.80;9.20;;;21.10;99.90;;;;;;5000239;28;20080;-73
2023/09/03 09:41:25;;;;;;;12.98;8.45;;;21.10;99.90;;;;;;5017120;28;20060;-73
2023/09/03 09:43:51;;;;;;;10.20;7.95;;;21.30;99.90;;;;;;5017654;28;20165;-73
2023/09/03 09:46:27;;;;;;;10.48;7.95;;;21.30;99.90;;;;;;5014215;28;20486;-73
2023/09/03 09:48:55;;;;;;;10.13;7.18;;;21.40;99.90;;;;;;5014636;28;20022;-73
2023/09/03 09:51:20;;;;;;;12.85;7.93;;;21.40;99.90;;;;;;5003013;28;20050;-73
2023/09/03 09:53:57;;;;;;;9.45;6.60;;;21.50;99.90;;;;;;4998892;28;20025;-73
2023/09/03 09:56:36;;;;;;;6.00;5.40;;;21.60;99.90;;;;;;5013942;28;20037;-73
2023/09/03 09:59:03;;;;;;;10.15;5.20;;;21.60;99.90;;;;;;5014195;28;20014;-73
2023/09/03 10:01:43;;;;;;;6.60;4.72;;;21.60;99.90;;;;;;4996083;28;20096;-73
2023/09/03 10:04:09;;;;;;;5.88;3.35;;;21.60;99.90;;;;;;5013752;28;20021;-73
2023/09/03 10:06:36;;;;;;;4.65;3.65;;;21.70;99.90;;;;;;4995791;28;20034;-73
2023/09/03 10:09:03;;;;;;;4.97;3.42;;;21.70;99.90;;;;;;5013721;28;20029;-73
2023/09/03 10:11:28;;;;;;;4.55;2.78;;;21.80;99.90;;;;;;5013537;28;20030;-74
2023/09/03 10:13:55;;;;;;;8.35;3.55;;;21.90;99.90;;;;;;5013813;28;20557;-74
2023/09/03 10:16:22;;;;;;;5.22;3.13;;;22.10;99.90;;;;;;5013346;28;20111;-74
2023/09/03 10:18:49;;;;;;;6.53;4.22;;;22.20;99.90;;;;;;5014112;28;20424;-74
2023/09/03 10:21:22;;;;;;;4.47;3.97;;;22.20;99.90;;;;;;5013100;28;20026;-74
2023/09/03 10:23:50;;;;;;;5.03;3.83;;;22.30;99.90;;;;;;5013830;28;20030;-74
2023/09/03 10:26:23;;;;;;;6.53;4.32;;;22.40;99.90;;;;;;5009058;28;20128;-74
2023/09/03 10:28:53;;;;;;;8.50;4.95;;;22.50;99.90;;;;;;4994488;28;20025;-74
2023/09/03 10:31:20;;;;;;;8.40;4.60;;;22.40;99.90;;;;;;5008248;28;20029;-74
2023/09/03 10:33:46;;;;;;;6.90;4.20;;;22.40;99.90;;;;;;5013504;28;20119;-74
2023/09/03 10:36:16;;;;;;;9.52;5.05;;;22.40;99.90;;;;;;5013481;28;20049;-74
2023/09/03 10:38:42;;;;;;;5.07;3.70;;;22.40;99.90;;;;;;5013652;28;20402;-74
2023/09/03 10:41:18;;;;;;;3.78;2.80;;;22.50;99.90;;;;;;4995807;28;20050;-74
2023/09/03 10:43:46;;;;;;;5.70;3.10;;;22.70;99.90;;;;;;5013345;28;20026;-74
2023/09/03 10:46:12;;;;;;;3.88;2.65;;;22.70;99.90;;;;;;5013282;28;20125;-74
2023/09/03 10:48:37;;;;;;;2.95;1.48;;;22.70;99.90;;;;;;4995608;28;20101;-73
2023/09/03 10:51:04;;;;;;;2.95;1.77;;;22.80;99.90;;;;;;4993645;28;20034;-74
2023/09/03 10:53:37;;;;;;;4.07;2.17;;;22.90;99.90;;;;;;4996638;28;20394;-73
2023/09/03 10:56:20;;;;;;;4.30;2.95;;;23.10;99.90;;;;;;5012452;28;20022;-74
2023/09/03 10:58:54;;;;;;;4.40;2.67;;;23.00;99.90;;;;;;4995034;28;20028;-74
2023/09/03 11:01:26;;;;;;;4.05;1.58;;;23.00;99.90;;;;;;4994990;28;20120;-74
2023/09/03 11:03:53;;;;;;;3.40;1.98;;;23.10;99.90;;;;;;5012739;28;20018;-73
2023/09/03 11:06:26;;;;;;;4.07;2.20;;;23.10;99.90;;;;;;5012287;28;20046;-73
2023/09/03 11:09:24;;;;;;;3.30;2.55;;;23.10;99.90;;;;;;5012926;28;20046;-73
2023/09/03 11:11:50;;;;;;;2.85;1.30;;;23.20;99.90;;;;;;5012822;28;20022;-73
2023/09/03 11:14:15;;;;;;;3.63;0.90;;;23.20;99.90;;;;;;5011752;28;20029;-72
2023/09/03 11:16:41;;;;;;;1.50;0.55;;;23.30;99.90;;;;;;5012085;28;20034;-73
2023/09/03 11:19:07;;;;;;;1.38;0.52;;;23.40;99.90;;;;;;5012773;28;20029;-73
2023/09/03 11:21:34;;;;;;;2.28;0.55;;;23.40;99.90;;;;;;5012191;28;20022;-73
2023/09/03 11:24:18;;;;;;;2.75;0.70;;;23.50;98.40;;;;;;5012088;28;20103;-74
2023/09/03 11:26:44;;;;;;;3.03;0.60;;;23.50;98.10;;;;;;5011133;28;20124;-73
2023/09/03 11:29:25;;;;;;;1.17;0.45;;;23.50;97.70;;;;;;5012693;28;20038;-74
2023/09/03 11:31:51;;;;;;;2.92;0.40;;;23.50;98.00;;;;;;5012553;28;20017;-74
2023/09/03 11:34:22;;;;;;;1.58;0.40;;;23.60;96.90;;;;;;4993633;28;20022;-74
2023/09/03 11:36:48;;;;;;;4.05;1.52;;;23.50;96.20;;;;;;5012767;28;20120;-74
2023/09/03 11:39:15;;;;;;;1.38;0.60;;;23.50;95.50;;;;;;5011954;28;20073;-73
2023/09/03 11:41:45;;;;;;;2.25;0.40;;;23.60;95.40;;;;;;5012094;28;20025;-74
2023/09/03 11:44:20;;;;;;;1.42;0.50;;;23.50;94.10;;;;;;4994513;28;20152;-73
2023/09/03 11:46:56;;;;;;;2.17;0.63;;;23.50;93.20;;;;;;5012349;28;20129;-73
2023/09/03 11:49:22;;;;;;;1.65;0.52;;;23.40;92.70;;;;;;5011858;28;20084;-73
2023/09/03 11:51:47;;;;;;;1.92;0.70;;;23.30;93.60;;;;;;5012004;28;20470;-73
2023/09/03 11:54:26;;;;;;;1.30;0.60;;;23.30;94.40;;;;;;5011747;28;20029;-73
2023/09/03 11:56:54;;;;;;;1.70;0.50;;;23.40;94.40;;;;;;5011943;28;20038;-73
2023/09/03 11:59:21;;;;;;;1.40;0.65;;;23.40;94.10;;;;;;5011401;28;20022;-72
2023/09/03 12:01:47;;;;;;;2.58;0.60;;;23.50;94.90;;;;;;5012001;28;20393;-73
2023/09/03 12:04:13;;;;;;;3.35;1.58;;;23.60;95.00;;;;;;5011995;28;20022;-74
2023/09/03 12:06:38;;;;;;;3.50;0.60;;;23.70;94.80;;;;;;5011094;28;20393;-73
2023/09/03 12:09:04;;;;;;;1.27;0.50;;;23.80;95.10;;;;;;5011214;28;20030;-73
2023/09/03 12:11:30;;;;;;;5.13;1.33;;;24.00;95.30;;;;;;5011212;28;20025;-73
2023/09/03 12:13:55;;;;;;;1.55;0.70;;;24.10;93.70;;;;;;5001436;28;20026;-74
2023/09/03 12:16:23;;;;;;;1.42;0.63;;;24.20;93.10;;;;;;5005006;28;20477;-74
2023/09/03 12:19:01;;;;;;;2.00;0.63;;;24.10;92.00;;;;;;5011817;28;20487;-74
2023/09/03 12:21:35;;;;;;;1.65;0.70;;;24.20;92.20;;;;;;5011224;28;20382;-73
2023/09/03 12:24:03;;;;;;;2.85;0.70;;;24.30;92.00;;;;;;5011404;28;20121;-73
2023/09/03 12:26:30;;;;;;;2.63;0.73;;;24.40;91.40;;;;;;5010818;28;20032;-73
2023/09/03 12:28:58;;;;;;;1.45;0.57;;;24.40;91.70;;;;;;5011744;28;20034;-74
2023/09/03 12:31:40;;;;;;;1.33;0.50;;;24.60;91.80;;;;;;5010759;28;20486;-73
2023/09/03 12:34:06;;;;;;;1.33;0.50;;;24.60;91.10;;;;;;5011459;28;20041;-73
2023/09/03 12:36:32;;;;;;;15.85;1.40;;;24.70;90.90;;;;;;4993393;28;20084;-73